Time;durP1;ratioP1;P1;durP2;ratioP2;P2;SDS_P1;SDS_P2;PMS_P1;PMS_P2;Temp;Humidity;BMP_temperature;BMP_pressure;BME280_temperature;BME280_humidity;BME280_pressure;Samples;Min_cycle;Max_cycle;Signal;HPM_P1;HPM_P2
2022/05/13 00:01:23;;;;;;;6.15;5.25;;;17.40;99.90;;;;;;4988809;28;20042;-75
2022/05/13 00:03:49;;;;;;;5.57;4.68;;;17.40;99.90;;;;;;4988250;28;20026;-77
2022/05/13 00:06:15;;;;;;;6.88;5.53;;;17.50;99.90;;;;;;4987461;28;20017;-76
2022/05/13 00:08:40;;;;;;;6.45;5.32;;;17.40;99.90;;;;;;4986046;28;20836;-77
2022/05/13 00:11:08;;;;;;;5.93;5.22;;;17.30;99.90;;;;;;4981635;28;20117;-77
2022/05/13 00:13:34;;;;;;;7.03;4.87;;;17.30;99.90;;;;;;4982076;28;20030;-77
2022/05/13 00:16:00;;;;;;;6.72;5.47;;;17.40;99.90;;;;;;4984085;28;20030;-76
2022/05/13 00:18:26;;;;;;;7.55;5.68;;;17.30;99.90;;;;;;4985226;28;20049;-76
2022/05/13 00:20:52;;;;;;;5.82;5.13;;;17.40;99.90;;;;;;4967099;28;20026;-77
2022/05/13 00:23:18;;;;;;;8.27;5.70;;;17.40;99.90;;;;;;4966712;28;20034;-76
2022/05/13 00:25:44;;;;;;;6.30;5.22;;;17.30;99.90;;;;;;4983789;28;20615;-76
2022/05/13 00:28:10;;;;;;;14.48;5.85;;;17.30;99.90;;;;;;4979150;28;21899;-77
2022/05/13 00:30:50;;;;;;;7.15;5.90;;;17.30;99.90;;;;;;4980923;28;20062;-76
2022/05/13 00:33:17;;;;;;;6.93;5.80;;;17.30;99.90;;;;;;4982940;28;20440;-76
2022/05/13 00:35:44;;;;;;;6.80;5.80;;;17.30;99.90;;;;;;4981542;28;20038;-76
2022/05/13 00:38:09;;;;;;;9.07;5.38;;;17.30;99.90;;;;;;4979470;28;20133;-76
2022/05/13 00:40:36;;;;;;;8.75;6.43;;;17.30;99.90;;;;;;4984524;28;20142;-77
2022/05/13 00:43:05;;;;;;;8.13;6.05;;;17.30;99.90;;;;;;4970216;28;20042;-77
2022/05/13 00:45:31;;;;;;;7.93;6.13;;;17.30;99.90;;;;;;4986016;28;20046;-77
2022/05/13 00:47:58;;;;;;;8.15;6.28;;;17.20;99.90;;;;;;4969891;28;20067;-76
2022/05/13 00:50:25;;;;;;;8.88;6.78;;;17.20;99.90;;;;;;4966006;28;20046;-76
2022/05/13 00:52:53;;;;;;;9.75;6.68;;;17.20;99.90;;;;;;4982551;28;20062;-76
2022/05/13 00:55:31;;;;;;;12.85;7.80;;;17.10;99.90;;;;;;4982726;28;20038;-75
2022/05/13 00:57:58;;;;;;;10.48;7.93;;;17.00;99.90;;;;;;4980750;28;21452;-76
2022/05/13 01:00:25;;;;;;;9.90;7.28;;;17.00;99.90;;;;;;4982009;28;20165;-76
2022/05/13 01:02:50;;;;;;;10.80;7.45;;;17.00;99.90;;;;;;4984164;28;20555;-76
2022/05/13 01:05:20;;;;;;;10.93;7.75;;;17.00;99.90;;;;;;4982143;28;20138;-76
2022/05/13 01:07:46;;;;;;;10.00;7.82;;;16.90;99.90;;;;;;4982719;28;20039;-77
2022/05/13 01:10:21;;;;;;;11.77;7.85;;;17.00;99.90;;;;;;4983159;28;20038;-77
2022/05/13 01:12:53;;;;;;;10.57;7.50;;;16.90;99.90;;;;;;4979990;28;20621;-77
2022/05/13 01:15:27;;;;;;;10.75;7.72;;;16.80;99.90;;;;;;4983717;28;20104;-77
2022/05/13 01:18:06;;;;;;;10.63;7.80;;;16.90;99.90;;;;;;4963883;28;21054;-77
2022/05/13 01:20:46;;;;;;;9.75;7.15;;;16.80;99.90;;;;;;4978589;28;21500;-77
2022/05/13 01:23:24;;;;;;;9.90;7.10;;;16.80;99.90;;;;;;4981054;28;20073;-76
2022/05/13 01:25:58;;;;;;;9.95;7.07;;;16.80;99.90;;;;;;4983019;28;20049;-76
2022/05/13 01:28:30;;;;;;;12.35;7.70;;;16.80;99.90;;;;;;4980595;28;20034;-77
2022/05/13 01:31:00;;;;;;;10.57;7.20;;;16.80;99.90;;;;;;4979235;28;20050;-75
2022/05/13 01:33:26;;;;;;;8.82;7.15;;;16.80;99.90;;;;;;4978696;28;20035;-76
2022/05/13 01:35:56;;;;;;;10.10;7.47;;;16.80;99.90;;;;;;4985208;28;20184;-77
2022/05/13 01:38:25;;;;;;;9.88;7.18;;;16.70;99.90;;;;;;4979595;28;20046;-77
2022/05/13 01:40:51;;;;;;;8.48;6.85;;;16.80;99.90;;;;;;4966688;28;20433;-77
2022/05/13 01:43:18;;;;;;;8.35;6.40;;;16.80;99.90;;;;;;4981915;28;20046;-76
2022/05/13 01:45:44;;;;;;;9.05;6.60;;;16.80;99.90;;;;;;4966119;28;20065;-77
2022/05/13 01:48:10;;;;;;;9.00;6.15;;;16.80;99.90;;;;;;4987096;28;20131;-76
2022/05/13 01:50:37;;;;;;;8.65;6.75;;;16.80;99.90;;;;;;4982745;28;20042;-76
2022/05/13 01:53:03;;;;;;;9.48;6.22;;;16.80;99.90;;;;;;4979336;28;20053;-76
2022/05/13 01:55:29;;;;;;;9.05;6.25;;;16.80;99.90;;;;;;4980538;28;20469;-75
2022/05/13 01:57:55;;;;;;;9.55;6.60;;;16.80;99.90;;;;;;4965604;28;20046;-75
2022/05/13 02:00:25;;;;;;;8.93;6.75;;;16.80;99.90;;;;;;4982202;28;20038;-74
2022/05/13 02:05:57;;;;;;;7.10;5.90;;;16.80;99.90;;;;;;4985678;28;20290;-75
2022/05/13 02:08:52;;;;;;;8.15;5.80;;;16.80;99.90;;;;;;4961832;28;20517;-75
2022/05/13 02:11:22;;;;;;;10.00;6.03;;;16.80;99.90;;;;;;4961207;28;20066;-75
2022/05/13 02:13:52;;;;;;;8.02;5.45;;;16.80;99.90;;;;;;4944430;28;20030;-76
2022/05/13 02:16:19;;;;;;;6.97;5.18;;;16.80;99.90;;;;;;4957712;28;20043;-76
2022/05/13 02:18:45;;;;;;;7.18;5.10;;;16.80;99.90;;;;;;4965113;28;20042;-75
2022/05/13 02:21:12;;;;;;;6.82;5.53;;;16.80;99.90;;;;;;4959568;28;20406;-76
2022/05/13 02:23:43;;;;;;;8.63;5.05;;;16.80;99.90;;;;;;4957343;28;20454;-76
2022/05/13 02:26:12;;;;;;;7.43;5.60;;;16.80;99.90;;;;;;4957545;28;20090;-76
2022/05/13 02:28:39;;;;;;;8.05;5.47;;;16.70;99.90;;;;;;4958860;28;20905;-76
2022/05/13 02:31:06;;;;;;;8.20;5.78;;;16.60;99.90;;;;;;4962116;28;20043;-76
2022/05/13 02:33:53;;;;;;;7.13;5.25;;;16.60;99.90;;;;;;4946953;28;20242;-76
2022/05/13 02:36:19;;;;;;;6.32;4.72;;;16.60;99.90;;;;;;4958999;28;20591;-75
2022/05/13 02:38:45;;;;;;;5.95;5.00;;;16.60;99.90;;;;;;4949119;28;20042;-76
2022/05/13 02:41:12;;;;;;;5.28;4.35;;;16.70;99.90;;;;;;4971572;28;20054;-75
2022/05/13 02:43:50;;;;;;;6.60;5.25;;;16.70;99.90;;;;;;4966714;28;20102;-76
2022/05/13 02:46:19;;;;;;;6.72;4.40;;;16.60;99.90;;;;;;4988628;28;20033;-76
2022/05/13 02:48:49;;;;;;;5.32;4.70;;;16.60;99.90;;;;;;4963550;28;20031;-75
2022/05/13 02:51:17;;;;;;;6.00;4.40;;;16.50;99.90;;;;;;4963678;28;20042;-76
2022/05/13 02:53:44;;;;;;;5.50;4.38;;;16.50;99.90;;;;;;4982784;28;20025;-75
2022/05/13 02:56:10;;;;;;;6.70;4.70;;;16.60;99.90;;;;;;4979916;28;20034;-75
2022/05/13 02:58:37;;;;;;;4.55;3.95;;;16.60;99.90;;;;;;4981163;28;20058;-76
2022/05/13 03:01:05;;;;;;;7.50;5.15;;;16.60;99.90;;;;;;4979122;28;20089;-75
2022/05/13 03:03:31;;;;;;;6.55;5.05;;;16.60;99.90;;;;;;4960667;28;20058;-76
2022/05/13 03:05:59;;;;;;;6.97;5.03;;;16.30;99.90;;;;;;4962497;28;20078;-75
2022/05/13 03:08:31;;;;;;;7.63;4.93;;;16.30;99.90;;;;;;4961980;28;20042;-75
2022/05/13 03:11:00;;;;;;;5.38;4.07;;;16.30;99.90;;;;;;4962287;28;20045;-75
2022/05/13 03:13:26;;;;;;;5.57;4.65;;;16.30;99.90;;;;;;4962527;28;20466;-75
2022/05/13 03:16:00;;;;;;;4.75;4.22;;;16.30;99.90;;;;;;4963716;28;20038;-76
2022/05/13 03:18:30;;;;;;;5.18;4.68;;;16.30;99.90;;;;;;4959281;28;20038;-76
2022/05/13 03:20:59;;;;;;;6.30;4.80;;;16.10;99.90;;;;;;4956293;28;20034;-76
2022/05/13 03:23:25;;;;;;;5.00;3.95;;;16.10;99.90;;;;;;4961239;28;20045;-75
2022/05/13 03:25:50;;;;;;;5.80;4.30;;;16.10;99.90;;;;;;4964443;28;20086;-75
2022/05/13 03:28:16;;;;;;;6.13;4.30;;;16.20;99.90;;;;;;4957134;28;20157;-76
2022/05/13 03:30:43;;;;;;;5.57;4.30;;;16.20;99.90;;;;;;4953879;28;20050;-75
2022/05/13 03:33:09;;;;;;;5.70;4.70;;;16.00;99.90;;;;;;4959111;28;20035;-75
2022/05/13 03:35:39;;;;;;;6.30;4.70;;;16.00;99.90;;;;;;4960822;28;20088;-76
2022/05/13 03:38:05;;;;;;;8.48;4.72;;;16.10;99.90;;;;;;4973341;28;20047;-77
2022/05/13 03:40:30;;;;;;;6.95;4.80;;;16.10;99.90;;;;;;4963739;28;20033;-77
2022/05/13 03:42:57;;;;;;;5.60;3.55;;;16.10;99.90;;;;;;4972635;28;20532;-77
2022/05/13 03:45:30;;;;;;;6.25;4.20;;;16.20;99.90;;;;;;4961393;28;20042;-76
2022/05/13 03:47:56;;;;;;;5.60;4.10;;;16.10;99.90;;;;;;4961077;28;20482;-77
2022/05/13 03:50:22;;;;;;;7.90;4.45;;;16.10;99.90;;;;;;4957268;28;20057;-76
2022/05/13 03:52:48;;;;;;;5.68;4.45;;;16.00;99.90;;;;;;4960240;28;20078;-77
2022/05/13 03:55:14;;;;;;;5.50;4.10;;;15.90;99.90;;;;;;4963651;28;20454;-76
2022/05/13 03:57:40;;;;;;;7.30;4.03;;;15.90;99.90;;;;;;4963102;28;20039;-77
2022/05/13 04:00:07;;;;;;;6.45;4.18;;;15.90;99.90;;;;;;4957820;28;20049;-77
2022/05/13 04:02:33;;;;;;;5.03;4.43;;;15.80;99.90;;;;;;4965999;28;20065;-77
2022/05/13 04:10:28;;;;;;;6.55;4.75;;;15.70;99.90;;;;;;4984934;28;20041;-76
2022/05/13 04:18:22;;;;;;;7.18;5.05;;;15.80;99.90;;;;;;4979984;28;20040;-77
2022/05/13 04:20:48;;;;;;;6.20;4.97;;;15.80;99.90;;;;;;4982192;28;20034;-77
2022/05/13 04:23:16;;;;;;;6.18;4.78;;;15.70;99.90;;;;;;4986616;28;20027;-77
2022/05/13 04:25:42;;;;;;;9.13;4.78;;;15.70;99.90;;;;;;4966225;28;20385;-76
2022/05/13 04:28:07;;;;;;;6.40;4.47;;;15.70;99.90;;;;;;4984198;28;20046;-77
2022/05/13 04:30:33;;;;;;;5.88;4.32;;;15.80;99.90;;;;;;4981956;28;20398;-76
2022/05/13 04:32:59;;;;;;;5.82;4.88;;;15.80;99.90;;;;;;4981810;28;20160;-76
2022/05/13 04:35:25;;;;;;;5.15;4.20;;;15.80;99.90;;;;;;4985516;28;20042;-76
2022/05/13 04:37:51;;;;;;;6.57;4.28;;;15.80;99.90;;;;;;4982690;28;20430;-76
2022/05/13 04:40:16;;;;;;;5.43;4.25;;;15.80;99.90;;;;;;4983642;28;20073;-77
2022/05/13 04:42:51;;;;;;;6.15;4.22;;;15.80;99.90;;;;;;4981825;28;20113;-77
2022/05/13 04:45:24;;;;;;;8.07;4.35;;;15.80;99.90;;;;;;4983772;28;20502;-76
2022/05/13 04:48:16;;;;;;;4.47;4.03;;;15.80;99.90;;;;;;4985162;28;20066;-76
2022/05/13 04:50:57;;;;;;;6.57;3.92;;;15.80;99.90;;;;;;4980452;28;20077;-77
2022/05/13 04:53:29;;;;;;;5.43;3.90;;;15.90;99.90;;;;;;4980260;28;20039;-77
2022/05/13 04:55:57;;;;;;;6.15;3.65;;;15.90;99.90;;;;;;4983476;28;21210;-76
2022/05/13 04:58:23;;;;;;;4.60;3.55;;;15.90;99.90;;;;;;4982635;28;20158;-76
2022/05/13 05:00:51;;;;;;;5.80;3.90;;;15.80;99.90;;;;;;4982521;28;20084;-77
2022/05/13 05:03:18;;;;;;;6.55;3.78;;;15.80;99.90;;;;;;4979128;28;20050;-76
2022/05/13 05:05:44;;;;;;;4.82;3.42;;;15.70;99.90;;;;;;4981974;28;20389;-77
2022/05/13 05:08:14;;;;;;;4.75;3.45;;;15.60;99.90;;;;;;4989741;28;20121;-76
2022/05/13 05:10:42;;;;;;;4.93;4.32;;;15.60;99.90;;;;;;4982017;28;20057;-76
2022/05/13 05:13:08;;;;;;;4.57;4.07;;;15.60;99.90;;;;;;4964609;28;20050;-76
2022/05/13 05:15:36;;;;;;;6.65;4.13;;;15.50;99.90;;;;;;4982082;28;20057;-76
2022/05/13 05:18:03;;;;;;;5.95;3.88;;;15.60;99.90;;;;;;4983915;28;20038;-76
2022/05/13 05:20:29;;;;;;;4.93;4.43;;;15.70;99.90;;;;;;4981496;28;20044;-76
2022/05/13 05:22:55;;;;;;;6.63;4.53;;;15.70;99.90;;;;;;4984174;28;20038;-76
2022/05/13 05:25:21;;;;;;;5.65;4.38;;;15.70;99.90;;;;;;4983228;28;20052;-76
2022/05/13 05:27:48;;;;;;;7.57;5.18;;;15.80;99.90;;;;;;4980859;28;20030;-75
2022/05/13 05:30:15;;;;;;;5.68;4.40;;;15.80;99.90;;;;;;4978912;28;20045;-75
2022/05/13 05:32:42;;;;;;;9.52;4.50;;;15.90;99.90;;;;;;4966433;28;20499;-76
2022/05/13 05:35:12;;;;;;;6.78;4.35;;;15.80;99.90;;;;;;4982919;28;20125;-76
2022/05/13 05:37:38;;;;;;;7.85;4.13;;;15.80;99.90;;;;;;4987589;28;20035;-75
2022/05/13 05:40:04;;;;;;;5.15;4.30;;;15.80;99.90;;;;;;4987596;28;20038;-76
2022/05/13 05:42:30;;;;;;;7.53;4.60;;;15.90;99.90;;;;;;4983966;28;20052;-76
2022/05/13 05:45:07;;;;;;;7.97;4.35;;;15.90;99.90;;;;;;4982934;28;20034;-76
2022/05/13 05:47:33;;;;;;;6.60;4.50;;;15.90;99.90;;;;;;4988258;28;20034;-76
2022/05/13 05:50:22;;;;;;;6.32;4.75;;;15.90;99.90;;;;;;4978968;28;20026;-76
2022/05/13 05:52:52;;;;;;;7.72;4.45;;;16.00;99.90;;;;;;4977224;28;20062;-76
2022/05/13 05:58:06;;;;;;;5.63;3.75;;;15.90;99.90;;;;;;4983374;28;20038;-76
2022/05/13 06:00:35;;;;;;;8.55;4.20;;;15.80;99.90;;;;;;4979623;28;20030;-77
2022/05/13 06:03:00;;;;;;;5.15;4.50;;;15.80;99.90;;;;;;4970871;28;20130;-76
2022/05/13 06:05:26;;;;;;;6.20;4.70;;;15.80;99.90;;;;;;4982026;28;20043;-75
2022/05/13 06:07:58;;;;;;;6.28;3.75;;;15.80;99.90;;;;;;4982501;28;20038;-77
2022/05/13 06:10:26;;;;;;;6.68;4.78;;;15.80;99.90;;;;;;4978607;28;20041;-75
2022/05/13 06:12:52;;;;;;;6.40;4.72;;;15.80;99.90;;;;;;4980605;28;20031;-75
2022/05/13 06:15:18;;;;;;;6.22;4.70;;;15.80;99.90;;;;;;4983285;28;20030;-76
2022/05/13 06:17:52;;;;;;;5.18;4.53;;;15.80;99.90;;;;;;4980852;28;20172;-76
2022/05/13 06:20:22;;;;;;;5.07;4.22;;;15.80;99.90;;;;;;4969875;28;20030;-76
2022/05/13 06:22:48;;;;;;;6.53;4.13;;;15.90;99.90;;;;;;4983752;28;20513;-76
2022/05/13 06:25:15;;;;;;;5.85;4.40;;;15.90;99.90;;;;;;4983191;28;20141;-75
2022/05/13 06:27:42;;;;;;;7.95;4.57;;;15.90;99.90;;;;;;4981050;28;20038;-75
2022/05/13 06:30:13;;;;;;;6.65;4.65;;;16.00;99.90;;;;;;4986281;28;20497;-76
2022/05/13 06:32:38;;;;;;;5.22;4.28;;;16.10;99.90;;;;;;4984736;28;20134;-75
2022/05/13 06:35:05;;;;;;;4.60;4.20;;;16.10;99.90;;;;;;4984715;28;20046;-76
2022/05/13 06:37:31;;;;;;;5.13;4.28;;;16.20;99.90;;;;;;4916140;28;20042;-76
2022/05/13 06:39:56;;;;;;;6.88;4.65;;;16.20;99.90;;;;;;4978331;28;20045;-76
2022/05/13 06:42:22;;;;;;;5.88;4.13;;;16.20;99.90;;;;;;4960874;28;20034;-75
2022/05/13 06:44:48;;;;;;;5.72;4.90;;;16.20;99.90;;;;;;4981118;28;20027;-75
2022/05/13 06:47:15;;;;;;;5.65;4.20;;;16.30;99.90;;;;;;4984696;28;20521;-74
2022/05/13 06:49:40;;;;;;;7.38;4.57;;;16.30;99.90;;;;;;4981522;28;20030;-75
2022/05/13 06:52:06;;;;;;;6.50;4.43;;;16.50;99.90;;;;;;4987646;28;20030;-75
2022/05/13 06:54:32;;;;;;;6.78;4.60;;;16.70;99.90;;;;;;4979148;28;20030;-76
2022/05/13 06:56:58;;;;;;;5.28;4.30;;;16.70;99.90;;;;;;4980000;28;20042;-75
2022/05/13 06:59:23;;;;;;;5.30;4.40;;;16.70;99.90;;;;;;4978098;28;20093;-76
2022/05/13 07:01:49;;;;;;;8.73;4.40;;;16.70;99.90;;;;;;4962734;28;20061;-76
2022/05/13 07:04:15;;;;;;;7.32;4.85;;;16.80;99.90;;;;;;4978923;28;20085;-75
2022/05/13 07:06:41;;;;;;;6.20;4.15;;;16.80;99.90;;;;;;4976404;28;20038;-75
2022/05/13 07:09:07;;;;;;;5.93;4.28;;;16.80;99.90;;;;;;4962622;28;20046;-75
2022/05/13 07:11:34;;;;;;;5.53;4.25;;;16.90;99.90;;;;;;4962619;28;20046;-75
2022/05/13 07:14:00;;;;;;;5.00;4.47;;;16.90;99.90;;;;;;4978917;28;20039;-75
2022/05/13 07:16:26;;;;;;;6.28;4.82;;;16.90;99.90;;;;;;4978779;28;20043;-76
2022/05/13 07:18:52;;;;;;;5.63;4.45;;;17.00;99.90;;;;;;4977263;28;20042;-75
2022/05/13 07:21:18;;;;;;;5.00;4.50;;;17.00;99.90;;;;;;4978193;28;20513;-76
2022/05/13 07:23:44;;;;;;;5.15;4.22;;;17.00;99.90;;;;;;4986039;28;20125;-76
2022/05/13 07:26:10;;;;;;;4.82;3.83;;;17.00;99.90;;;;;;4983449;28;20145;-76
2022/05/13 07:28:38;;;;;;;6.68;4.32;;;16.90;99.90;;;;;;4988218;28;20039;-76
2022/05/13 07:31:05;;;;;;;;;;;16.90;99.90;;;;;;4982228;28;20386;-76
2022/05/13 07:33:30;;;;;;;6.07;3.92;;;16.90;99.90;;;;;;4960807;28;19910;-75
2022/05/13 07:35:57;;;;;;;5.47;4.45;;;17.00;99.90;;;;;;4983007;28;20045;-76
2022/05/13 07:38:23;;;;;;;4.78;4.00;;;17.10;99.90;;;;;;4985235;28;20546;-76
2022/05/13 07:43:34;;;;;;;6.45;4.30;;;17.30;99.90;;;;;;4978172;28;20509;-75
2022/05/13 07:46:00;;;;;;;5.72;4.25;;;17.30;99.90;;;;;;4983987;28;20070;-75
2022/05/13 07:48:25;;;;;;;5.30;3.67;;;17.30;99.90;;;;;;4983221;28;20035;-76
2022/05/13 07:50:52;;;;;;;4.72;4.00;;;17.30;99.90;;;;;;4982265;28;20413;-75
2022/05/13 07:53:18;;;;;;;5.32;3.88;;;17.30;99.90;;;;;;4968667;28;20043;-76
2022/05/13 07:55:44;;;;;;;5.43;4.13;;;17.40;99.90;;;;;;4976903;28;20057;-75
2022/05/13 07:58:09;;;;;;;5.63;4.65;;;17.40;99.90;;;;;;4989319;28;20053;-76
2022/05/13 08:00:37;;;;;;;6.50;4.45;;;17.40;99.90;;;;;;4978447;28;20038;-76
2022/05/13 08:03:09;;;;;;;5.95;4.65;;;17.40;99.90;;;;;;4988760;28;20054;-76
2022/05/13 08:05:46;;;;;;;5.63;4.70;;;17.30;99.90;;;;;;4979145;28;20030;-75
2022/05/13 08:08:16;;;;;;;5.88;4.40;;;17.10;99.90;;;;;;4982469;28;20923;-76
2022/05/13 08:10:49;;;;;;;6.00;3.83;;;17.10;99.90;;;;;;4966280;28;20101;-75
2022/05/13 08:13:15;;;;;;;6.68;4.70;;;17.10;99.90;;;;;;4980535;28;20042;-75
2022/05/13 08:15:41;;;;;;;7.32;4.82;;;17.00;99.90;;;;;;4981824;28;20446;-75
2022/05/13 08:18:08;;;;;;;6.15;4.80;;;17.10;99.90;;;;;;4961548;28;20125;-74
2022/05/13 08:20:34;;;;;;;10.50;5.22;;;17.00;99.90;;;;;;4964440;28;20409;-74
2022/05/13 08:23:00;;;;;;;8.55;5.65;;;16.90;99.90;;;;;;4981258;28;20046;-74
2022/05/13 08:25:25;;;;;;;5.93;5.28;;;16.90;99.90;;;;;;4982091;28;20070;-75
2022/05/13 08:27:52;;;;;;;7.82;5.45;;;16.80;99.90;;;;;;4990982;28;20058;-74
2022/05/13 08:30:18;;;;;;;9.65;5.75;;;16.90;99.90;;;;;;4981000;28;20042;-76
2022/05/13 08:32:44;;;;;;;9.65;3.83;;;16.80;99.90;;;;;;4972247;28;20034;-75
2022/05/13 08:35:12;;;;;;;6.18;3.85;;;16.60;99.90;;;;;;4991542;28;20034;-76
2022/05/13 08:37:42;;;;;;;;;;;16.50;99.90;;;;;;4983304;28;20026;-76
2022/05/13 08:40:15;;;;;;;4.55;3.60;;;16.40;99.90;;;;;;4980706;28;19914;-74
2022/05/13 08:42:45;;;;;;;4.22;3.53;;;16.40;99.90;;;;;;4980485;28;20023;-75
2022/05/13 08:45:12;;;;;;;3.60;3.10;;;16.30;99.90;;;;;;4979909;28;20038;-74
2022/05/13 08:47:54;;;;;;;3.70;3.17;;;16.20;99.90;;;;;;4980179;28;20088;-75
2022/05/13 08:50:26;;;;;;;4.68;3.40;;;16.20;99.90;;;;;;4979210;28;20391;-75
2022/05/13 08:53:16;;;;;;;6.22;3.85;;;16.10;99.90;;;;;;4961621;28;20039;-75
2022/05/13 08:55:46;;;;;;;5.18;3.38;;;16.20;99.90;;;;;;4985763;28;20534;-75
2022/05/13 08:58:35;;;;;;;9.50;3.85;;;16.20;99.90;;;;;;4984207;28;20053;-74
2022/05/13 09:01:04;;;;;;;10.50;3.90;;;16.10;99.90;;;;;;4977620;28;20485;-75
2022/05/13 09:03:40;;;;;;;6.13;3.60;;;16.10;99.90;;;;;;4963403;28;20054;-75
2022/05/13 09:06:44;;;;;;;4.88;3.30;;;16.10;99.90;;;;;;4976636;28;20093;-75
2022/05/13 09:09:12;;;;;;;4.88;3.35;;;16.20;99.90;;;;;;4981343;28;20077;-75
2022/05/13 09:11:53;;;;;;;4.22;3.35;;;16.30;99.90;;;;;;4984937;28;20042;-74
2022/05/13 09:14:44;;;;;;;5.10;3.00;;;16.20;99.90;;;;;;4980527;28;20121;-74
2022/05/13 09:17:37;;;;;;;5.47;3.90;;;16.20;99.90;;;;;;4944739;28;20096;-73
2022/05/13 09:20:17;;;;;;;7.18;3.33;;;16.20;99.90;;;;;;4961505;28;20034;-75
2022/05/13 09:22:52;;;;;;;5.90;3.60;;;16.30;99.90;;;;;;4958186;28;20046;-75
2022/05/13 09:25:41;;;;;;;4.05;3.45;;;16.30;99.90;;;;;;4986522;28;20026;-74
2022/05/13 09:28:09;;;;;;;3.70;3.40;;;16.20;99.90;;;;;;4984327;28;20033;-73
2022/05/13 09:30:42;;;;;;;4.15;3.10;;;16.20;99.90;;;;;;4977735;28;20040;-75
2022/05/13 09:33:22;;;;;;;6.15;4.43;;;16.20;99.90;;;;;;4950994;28;20106;-75
2022/05/13 09:35:55;;;;;;;7.30;4.25;;;16.30;99.90;;;;;;4965095;28;20035;-74
2022/05/13 09:38:25;;;;;;;4.82;4.00;;;16.40;99.90;;;;;;4962470;28;20031;-74
2022/05/13 09:41:00;;;;;;;6.15;4.05;;;16.30;99.90;;;;;;4987141;28;20058;-75
2022/05/13 09:43:43;;;;;;;5.40;4.32;;;16.40;99.90;;;;;;4978393;28;20034;-74
2022/05/13 09:46:19;;;;;;;6.45;4.38;;;16.40;99.90;;;;;;4969022;28;20036;-74
2022/05/13 09:48:58;;;;;;;5.32;4.30;;;16.30;99.90;;;;;;4980391;28;20113;-74
2022/05/13 09:51:35;;;;;;;6.38;3.97;;;16.30;99.90;;;;;;4983182;28;22214;-75
2022/05/13 09:54:22;;;;;;;7.20;4.53;;;16.30;99.90;;;;;;4982728;28;20501;-75
2022/05/13 09:56:53;;;;;;;8.25;4.80;;;16.20;99.90;;;;;;4974386;28;20042;-74
2022/05/13 09:59:24;;;;;;;4.53;3.95;;;16.10;99.90;;;;;;4980660;28;20053;-74
2022/05/13 10:01:51;;;;;;;7.88;5.07;;;16.00;99.90;;;;;;4991569;28;20062;-73
2022/05/13 10:04:27;;;;;;;5.90;4.53;;;16.10;99.90;;;;;;4985573;28;20497;-74
2022/05/13 10:07:14;;;;;;;6.90;4.63;;;16.10;99.90;;;;;;4978040;28;20113;-75
2022/05/13 10:15:28;;;;;;;5.50;4.57;;;16.10;99.90;;;;;;4958133;28;20033;-75
2022/05/13 10:18:17;;;;;;;6.05;4.63;;;16.20;99.90;;;;;;4986148;28;20406;-74
2022/05/13 10:20:44;;;;;;;9.13;5.05;;;16.20;99.90;;;;;;4981742;28;20039;-75
2022/05/13 10:23:20;;;;;;;7.32;4.85;;;16.30;99.90;;;;;;4985070;28;20038;-74
2022/05/13 10:25:51;;;;;;;6.72;4.95;;;16.40;99.90;;;;;;4984000;28;20363;-75
2022/05/13 10:28:19;;;;;;;6.93;5.10;;;16.20;99.90;;;;;;4976916;28;20473;-74
2022/05/13 10:30:58;;;;;;;6.40;4.43;;;16.20;99.90;;;;;;4978029;28;20042;-75
2022/05/13 10:33:47;;;;;;;5.72;4.40;;;16.30;99.90;;;;;;4978959;28;20489;-75
2022/05/13 10:36:17;;;;;;;6.63;4.32;;;16.20;99.90;;;;;;4975355;28;20774;-75
2022/05/13 10:38:56;;;;;;;6.57;4.30;;;16.20;99.90;;;;;;4979237;28;20077;-75
2022/05/13 10:41:41;;;;;;;5.20;4.28;;;16.30;99.90;;;;;;4977617;28;20026;-75
2022/05/13 10:44:16;;;;;;;8.82;5.15;;;16.30;99.90;;;;;;4978599;28;20042;-75
2022/05/13 10:47:00;;;;;;;6.07;4.25;;;16.30;99.90;;;;;;4965138;28;20030;-76
2022/05/13 10:49:33;;;;;;;7.43;4.53;;;16.30;99.90;;;;;;4978650;28;20058;-75
2022/05/13 10:52:24;;;;;;;6.50;3.88;;;16.40;99.90;;;;;;4981624;28;20571;-76
2022/05/13 10:55:15;;;;;;;6.65;4.13;;;16.30;99.90;;;;;;4985897;28;20125;-75
2022/05/13 10:57:55;;;;;;;6.35;5.30;;;16.40;99.90;;;;;;4985190;28;20034;-75
2022/05/13 11:00:29;;;;;;;7.38;5.13;;;16.50;99.90;;;;;;4977004;28;20030;-74
2022/05/13 11:03:19;;;;;;;10.25;5.63;;;16.70;99.90;;;;;;4981880;28;20050;-75
2022/05/13 11:06:16;;;;;;;9.10;5.38;;;16.90;99.90;;;;;;4968310;28;20125;-75
2022/05/13 11:08:57;;;;;;;5.70;4.53;;;17.10;99.90;;;;;;4979408;28;20022;-74
2022/05/13 11:11:43;;;;;;;6.40;4.82;;;17.00;99.90;;;;;;4983291;28;20034;-75
2022/05/13 11:14:26;;;;;;;7.65;4.45;;;17.30;99.90;;;;;;4984709;28;20043;-75
2022/05/13 11:16:55;;;;;;;8.07;4.88;;;17.40;99.90;;;;;;4985814;28;20034;-76
2022/05/13 11:19:24;;;;;;;9.88;4.78;;;17.30;99.90;;;;;;4983742;28;20035;-76
2022/05/13 11:22:18;;;;;;;6.85;4.75;;;17.30;99.90;;;;;;4981519;28;20358;-76
2022/05/13 11:27:52;;;;;;;9.77;4.90;;;17.30;99.90;;;;;;4984973;28;20049;-75
2022/05/13 11:30:45;;;;;;;8.50;5.63;;;17.50;99.90;;;;;;4987883;28;20030;-75
2022/05/13 11:33:28;;;;;;;6.65;4.80;;;17.50;99.90;;;;;;4974794;28;20065;-75
2022/05/13 11:36:17;;;;;;;7.78;5.18;;;17.70;99.90;;;;;;4981087;28;20474;-75
2022/05/13 11:38:52;;;;;;;14.88;6.03;;;17.80;99.90;;;;;;4988184;28;20030;-76
2022/05/13 11:41:22;;;;;;;9.38;5.28;;;18.10;99.90;;;;;;4979674;28;20052;-75
2022/05/13 11:44:01;;;;;;;7.22;4.78;;;18.20;99.90;;;;;;4986250;28;20037;-75
2022/05/13 11:46:45;;;;;;;10.93;6.80;;;18.00;99.90;;;;;;4984005;28;20049;-74
2022/05/13 11:49:35;;;;;;;6.95;4.82;;;17.80;99.90;;;;;;4988081;28;20038;-74
2022/05/13 11:52:35;;;;;;;9.25;5.47;;;17.90;99.90;;;;;;4988395;28;20045;-75
2022/05/13 11:55:41;;;;;;;9.85;6.13;;;17.90;99.90;;;;;;4986582;28;20030;-75
2022/05/13 11:58:08;;;;;;;8.20;6.00;;;18.00;99.90;;;;;;4984749;28;20046;-74
2022/05/13 12:00:38;;;;;;;9.55;6.65;;;18.30;99.90;;;;;;4988271;28;20479;-76
2022/05/13 12:03:09;;;;;;;10.35;6.22;;;18.40;99.90;;;;;;4988492;28;20116;-76
2022/05/13 12:06:01;;;;;;;10.82;6.75;;;18.50;99.90;;;;;;4975338;28;20437;-76
2022/05/13 12:08:44;;;;;;;8.10;5.60;;;18.50;99.90;;;;;;4991592;28;20039;-76
2022/05/13 12:11:52;;;;;;;12.55;6.50;;;18.40;99.90;;;;;;4975972;28;20034;-77
2022/05/13 12:14:29;;;;;;;10.57;6.50;;;18.30;99.90;;;;;;4963611;28;20132;-76
2022/05/13 12:17:07;;;;;;;7.97;6.30;;;18.20;99.90;;;;;;4988730;28;20088;-76
2022/05/13 12:20:02;;;;;;;12.68;7.03;;;18.20;99.90;;;;;;4985313;28;20398;-76
2022/05/13 12:22:30;;;;;;;9.88;6.50;;;18.10;99.90;;;;;;4986237;28;20147;-76
2022/05/13 12:25:05;;;;;;;10.25;6.78;;;18.20;99.90;;;;;;4993956;28;20026;-76
2022/05/13 12:27:44;;;;;;;8.68;5.75;;;18.50;99.90;;;;;;4989260;28;20054;-76
2022/05/13 12:30:35;;;;;;;8.10;6.28;;;18.70;99.90;;;;;;4986528;28;20049;-76
2022/05/13 12:33:19;;;;;;;11.65;6.00;;;18.70;99.90;;;;;;4992803;28;20068;-76
2022/05/13 12:39:10;;;;;;;10.52;5.75;;;18.80;99.90;;;;;;4918066;29;20041;-76
2022/05/13 12:41:42;;;;;;;6.50;4.90;;;18.80;99.90;;;;;;4986500;28;20133;-76
2022/05/13 12:44:14;;;;;;;8.70;5.15;;;18.60;99.90;;;;;;4982356;28;20042;-76
2022/05/13 12:46:52;;;;;;;8.52;5.38;;;18.50;99.90;;;;;;4990354;28;20070;-76
2022/05/13 12:49:48;;;;;;;11.65;5.30;;;18.40;99.90;;;;;;4990440;28;20019;-77
2022/05/13 12:52:21;;;;;;;7.07;5.28;;;18.50;99.90;;;;;;4993749;28;20088;-77
2022/05/13 12:55:25;;;;;;;8.30;5.25;;;18.50;99.90;;;;;;4995539;28;21233;-76
2022/05/13 12:57:53;;;;;;;6.70;5.00;;;18.60;99.90;;;;;;4985322;28;20884;-77
2022/05/13 13:00:20;;;;;;;9.57;5.10;;;18.60;99.90;;;;;;4990488;28;20030;-76
2022/05/13 13:02:52;;;;;;;8.63;5.00;;;18.70;99.90;;;;;;4973746;28;20077;-77
2022/05/13 13:05:23;;;;;;;10.30;4.72;;;18.70;99.90;;;;;;4998910;28;20062;-77
2022/05/13 13:07:53;;;;;;;9.38;5.35;;;18.50;99.90;;;;;;4992445;28;20474;-76
2022/05/13 13:10:21;;;;;;;7.75;5.07;;;18.40;99.90;;;;;;4998052;28;20172;-77
2022/05/13 13:13:13;;;;;;;9.18;4.78;;;18.60;99.90;;;;;;4980952;28;20035;-77
2022/05/13 13:15:49;;;;;;;6.63;4.40;;;18.80;99.90;;;;;;4993622;28;20482;-77
2022/05/13 13:18:15;;;;;;;7.90;5.22;;;18.70;99.90;;;;;;4982948;28;20092;-77
2022/05/13 13:21:00;;;;;;;6.32;4.60;;;18.70;99.90;;;;;;4986678;28;20042;-77
2022/05/13 13:23:31;;;;;;;8.38;5.20;;;18.70;99.90;;;;;;4990002;28;20030;-77
2022/05/13 13:25:57;;;;;;;7.55;5.25;;;18.80;99.90;;;;;;4994239;28;20041;-77
2022/05/13 13:28:43;;;;;;;12.55;6.28;;;18.80;99.90;;;;;;4974088;28;20398;-78
2022/05/13 13:31:14;;;;;;;10.93;5.70;;;18.70;99.90;;;;;;4986302;28;20090;-77
2022/05/13 13:33:49;;;;;;;6.97;5.43;;;18.70;99.90;;;;;;4981803;28;20064;-77
2022/05/13 13:36:24;;;;;;;9.50;5.75;;;18.60;99.90;;;;;;4987564;28;20022;-77
2022/05/13 13:38:52;;;;;;;6.22;5.25;;;18.60;99.90;;;;;;4990360;28;20073;-78
2022/05/13 13:41:29;;;;;;;;;;;18.70;99.90;;;;;;4995861;28;20038;-78